createdAt,value
2023-05-14T00:00:01.832Z,94592.00
2023-05-14T00:01:01.870Z,94592.00
2023-05-14T00:02:01.961Z,94592.00
2023-05-14T00:03:01.984Z,94592.00
2023-05-14T00:04:01.995Z,94592.00
2023-05-14T00:05:01.938Z,94588.00
2023-05-14T00:06:01.960Z,94592.00
2023-05-14T00:07:02.029Z,94594.00
2023-05-14T00:08:02.005Z,94590.00
2023-05-14T00:09:02.038Z,94592.00
2023-05-14T00:10:02.077Z,94594.00
2023-05-14T00:11:02.064Z,94594.00
2023-05-14T00:12:02.087Z,94592.00
2023-05-14T00:13:02.108Z,94594.00
2023-05-14T00:14:02.133Z,94590.00
2023-05-14T00:15:02.154Z,94592.00
2023-05-14T00:16:02.240Z,94590.00
2023-05-14T00:17:02.220Z,94590.00
2023-05-14T00:18:02.330Z,94588.00
2023-05-14T00:19:02.432Z,94588.00
2023-05-14T00:20:02.298Z,94590.00
2023-05-14T00:21:02.321Z,94590.00
2023-05-14T00:22:02.366Z,94587.00
2023-05-14T00:23:02.378Z,94588.00
2023-05-14T00:24:02.392Z,94587.00
2023-05-14T00:25:02.409Z,94587.00
2023-05-14T00:26:02.433Z,94587.00
2023-05-14T00:27:02.458Z,94587.00
2023-05-14T00:28:02.468Z,94585.00
2023-05-14T00:29:02.519Z,94583.00
2023-05-14T00:30:02.516Z,94581.00
2023-05-14T00:31:02.576Z,94579.00
2023-05-14T00:32:02.563Z,94579.00
2023-05-14T00:33:02.673Z,94577.00
2023-05-14T00:34:02.618Z,94579.00
2023-05-14T00:35:02.648Z,94577.00
2023-05-14T00:36:02.654Z,94577.00
2023-05-14T00:37:02.725Z,94577.00
2023-05-14T00:38:02.716Z,94577.00
2023-05-14T00:39:02.724Z,94577.00
2023-05-14T00:40:02.821Z,94577.00
2023-05-14T00:41:02.810Z,94575.00
2023-05-14T00:42:02.799Z,94577.00
2023-05-14T00:43:02.812Z,94577.00
2023-05-14T00:44:02.845Z,94579.00
2023-05-14T00:45:02.882Z,94577.00
2023-05-14T00:46:02.910Z,94579.00
2023-05-14T00:47:02.938Z,94577.00
2023-05-14T00:48:03.003Z,94579.00
2023-05-14T00:49:02.961Z,94581.00
2023-05-14T00:50:02.993Z,94579.00
2023-05-14T00:51:03.001Z,94581.00
2023-05-14T00:52:03.020Z,94577.00
2023-05-14T00:53:03.054Z,94579.00
2023-05-14T00:54:03.080Z,94579.00
2023-05-14T00:55:03.114Z,94581.00
2023-05-14T00:56:03.119Z,94577.00
2023-05-14T00:57:03.151Z,94579.00
2023-05-14T00:58:03.154Z,94579.00
2023-05-14T00:59:03.203Z,94579.00
2023-05-14T01:00:03.231Z,94579.00
2023-05-14T01:01:03.383Z,94579.00
2023-05-14T01:02:03.300Z,94579.00
2023-05-14T01:03:04.289Z,94579.00
2023-05-14T01:04:03.441Z,94577.00
2023-05-14T01:05:03.350Z,94579.00
2023-05-14T01:06:03.436Z,94579.00
2023-05-14T01:07:03.432Z,94579.00
2023-05-14T01:08:04.224Z,94579.00
2023-05-14T01:09:03.456Z,94581.00
2023-05-14T01:10:03.503Z,94577.00
2023-05-14T01:11:03.530Z,94579.00
2023-05-14T01:12:03.551Z,94577.00
2023-05-14T01:13:03.560Z,94575.00
2023-05-14T01:14:03.578Z,94575.00
2023-05-14T01:15:03.638Z,94573.00
2023-05-14T01:16:03.658Z,94575.00
2023-05-14T01:17:03.669Z,94571.00
2023-05-14T01:18:03.787Z,94573.00
2023-05-14T01:19:03.785Z,94569.00
2023-05-14T01:20:03.772Z,94569.00
2023-05-14T01:21:03.813Z,94569.00
2023-05-14T01:22:03.841Z,94567.00
2023-05-14T01:23:03.880Z,94569.00
2023-05-14T01:24:03.970Z,94567.00
2023-05-14T01:25:03.931Z,94567.00
2023-05-14T01:26:03.956Z,94571.00
2023-05-14T01:27:04.018Z,94569.00
2023-05-14T01:28:04.018Z,94569.00
2023-05-14T01:29:04.064Z,94569.00
2023-05-14T01:30:04.113Z,94569.00
2023-05-14T01:31:04.101Z,94569.00
2023-05-14T01:32:04.239Z,94571.00
2023-05-14T01:33:04.201Z,94571.00
2023-05-14T01:34:04.196Z,94569.00
2023-05-14T01:35:04.199Z,94565.00
2023-05-14T01:36:04.245Z,94569.00
2023-05-14T01:37:04.281Z,94569.00
2023-05-14T01:38:04.305Z,94571.00
2023-05-14T01:39:04.323Z,94569.00
2023-05-14T01:40:04.393Z,94571.00
2023-05-14T01:41:04.386Z,94567.00
2023-05-14T01:42:04.419Z,94571.00
2023-05-14T01:43:04.497Z,94569.00
2023-05-14T01:44:04.475Z,94569.00
2023-05-14T01:45:04.503Z,94565.00
2023-05-14T01:46:04.619Z,94565.00
2023-05-14T01:47:04.558Z,94569.00
2023-05-14T01:48:04.675Z,94567.00
2023-05-14T01:49:04.641Z,94569.00
2023-05-14T01:50:04.666Z,94569.00
2023-05-14T01:51:04.682Z,94569.00
2023-05-14T01:52:04.723Z,94569.00
2023-05-14T01:53:04.737Z,94567.00
2023-05-14T01:54:04.794Z,94571.00
2023-05-14T01:55:04.824Z,94569.00
2023-05-14T01:56:04.843Z,94567.00
2023-05-14T01:57:04.873Z,94563.00
2023-05-14T01:58:04.899Z,94563.00
2023-05-14T01:59:04.931Z,94563.00
2023-05-14T02:00:04.964Z,94561.00
2023-05-14T02:01:05.034Z,94561.00
2023-05-14T02:02:05.035Z,94561.00
2023-05-14T02:03:05.120Z,94561.00
2023-05-14T02:04:05.160Z,94561.00
2023-05-14T02:05:07.073Z,94557.00
2023-05-14T02:06:05.174Z,94557.00
2023-05-14T02:07:05.186Z,94559.00
2023-05-14T02:08:05.205Z,94559.00
2023-05-14T02:09:05.244Z,94555.00
2023-05-14T02:10:05.281Z,94557.00
2023-05-14T02:11:05.357Z,94557.00
2023-05-14T02:12:05.326Z,94555.00
2023-05-14T02:13:05.359Z,94553.00
2023-05-14T02:14:05.385Z,94555.00
2023-05-14T02:15:05.446Z,94553.00
2023-05-14T02:16:05.506Z,94549.00
2023-05-14T02:17:05.490Z,94547.00
2023-05-14T02:18:05.541Z,94545.00
2023-05-14T02:19:05.616Z,94549.00
2023-05-14T02:20:05.573Z,94551.00
2023-05-14T02:21:05.615Z,94547.00
2023-05-14T02:22:05.616Z,94547.00
2023-05-14T02:23:05.647Z,94547.00
2023-05-14T02:24:05.673Z,94547.00
2023-05-14T02:25:05.730Z,94549.00
2023-05-14T02:26:05.743Z,94549.00
2023-05-14T02:27:05.773Z,94549.00
2023-05-14T02:28:05.784Z,94545.00
2023-05-14T02:29:05.826Z,94545.00
2023-05-14T02:30:05.853Z,94543.00
2023-05-14T02:31:05.926Z,94549.00
2023-05-14T02:32:05.935Z,94545.00
2023-05-14T02:33:06.058Z,94545.00
2023-05-14T02:34:06.007Z,94543.00
2023-05-14T02:35:06.040Z,94545.00
2023-05-14T02:36:06.052Z,94543.00
2023-05-14T02:37:06.082Z,94547.00
2023-05-14T02:38:06.111Z,94543.00
2023-05-14T02:39:06.134Z,94541.00
2023-05-14T02:40:06.175Z,94541.00
2023-05-14T02:41:06.217Z,94539.00
2023-05-14T02:42:06.245Z,94535.00
2023-05-14T02:43:06.256Z,94535.00
2023-05-14T02:44:06.284Z,94535.00
2023-05-14T02:45:06.357Z,94533.00
2023-05-14T02:46:06.363Z,94533.00
2023-05-14T02:47:06.428Z,94532.00
2023-05-14T02:48:06.493Z,94528.00
2023-05-14T02:49:06.445Z,94528.00
2023-05-14T02:50:06.506Z,94526.00
2023-05-14T02:51:06.532Z,94528.00
2023-05-14T02:52:06.563Z,94526.00
2023-05-14T02:53:06.610Z,94522.00
2023-05-14T02:54:06.642Z,94522.00
2023-05-14T02:55:06.677Z,94518.00
2023-05-14T02:56:06.707Z,94522.00
2023-05-14T02:57:06.728Z,94520.00
2023-05-14T02:58:06.756Z,94522.00
2023-05-14T02:59:06.807Z,94522.00
2023-05-14T03:00:06.833Z,94524.00
2023-05-14T03:01:06.946Z,94524.00
2023-05-14T03:02:06.987Z,94524.00
2023-05-14T03:03:07.006Z,94524.00
2023-05-14T03:04:06.984Z,94524.00
2023-05-14T03:05:07.015Z,94524.00
2023-05-14T03:06:07.060Z,94524.00
2023-05-14T03:07:07.116Z,94524.00
2023-05-14T03:08:07.122Z,94522.00
2023-05-14T03:09:07.167Z,94522.00
2023-05-14T03:10:07.202Z,94522.00
2023-05-14T03:11:07.278Z,94522.00
2023-05-14T03:12:07.278Z,94524.00
2023-05-14T03:13:07.374Z,94524.00
2023-05-14T03:14:07.359Z,94524.00
2023-05-14T03:15:07.460Z,94526.00
2023-05-14T03:16:07.781Z,94524.00
2023-05-14T03:17:07.509Z,94524.00
2023-05-14T03:18:07.527Z,94524.00
2023-05-14T03:19:07.643Z,94524.00
2023-05-14T03:20:07.567Z,94520.00
2023-05-14T03:21:07.666Z,94520.00
2023-05-14T03:22:07.642Z,94518.00
2023-05-14T03:23:07.748Z,94520.00
2023-05-14T03:24:07.741Z,94516.00
2023-05-14T03:25:07.783Z,94518.00
2023-05-14T03:26:07.786Z,94516.00
2023-05-14T03:27:07.879Z,94512.00
2023-05-14T03:28:07.882Z,94514.00
2023-05-14T03:29:07.914Z,94514.00
2023-05-14T03:30:08.001Z,94512.00
2023-05-14T03:31:08.044Z,94512.00
2023-05-14T03:32:08.035Z,94514.00
2023-05-14T03:33:08.072Z,94512.00
2023-05-14T03:34:08.111Z,94510.00
2023-05-14T03:35:08.134Z,94512.00
2023-05-14T03:36:08.183Z,94510.00
2023-05-14T03:37:08.233Z,94510.00
2023-05-14T03:38:08.270Z,94510.00
2023-05-14T03:39:08.292Z,94514.00
2023-05-14T03:40:08.330Z,94512.00
2023-05-14T03:41:08.367Z,94516.00
2023-05-14T03:42:08.396Z,94516.00
2023-05-14T03:43:08.496Z,94516.00
2023-05-14T03:44:08.517Z,94514.00
2023-05-14T03:45:08.526Z,94516.00
2023-05-14T03:46:08.612Z,94514.00
2023-05-14T03:47:08.625Z,94514.00
2023-05-14T03:48:08.796Z,94512.00
2023-05-14T03:49:08.791Z,94512.00
2023-05-14T03:50:08.755Z,94512.00
2023-05-14T03:51:08.772Z,94512.00
2023-05-14T03:52:08.847Z,94512.00
2023-05-14T03:53:08.846Z,94514.00
2023-05-14T03:54:08.910Z,94514.00
2023-05-14T03:55:08.958Z,94514.00
2023-05-14T03:56:08.986Z,94516.00
2023-05-14T03:57:09.025Z,94516.00
2023-05-14T03:58:09.042Z,94516.00
2023-05-14T03:59:09.075Z,94516.00
2023-05-14T04:00:09.120Z,94518.00
2023-05-14T04:01:09.182Z,94520.00
2023-05-14T04:02:09.228Z,94520.00
2023-05-14T04:03:09.356Z,94522.00
2023-05-14T04:04:09.362Z,94522.00
2023-05-14T04:05:09.316Z,94522.00
2023-05-14T04:06:09.337Z,94524.00
2023-05-14T04:07:09.394Z,94524.00
2023-05-14T04:08:09.410Z,94522.00
2023-05-14T04:09:09.437Z,94524.00
2023-05-14T04:10:09.481Z,94524.00
2023-05-14T04:11:09.520Z,94522.00
2023-05-14T04:12:09.567Z,94522.00
2023-05-14T04:13:09.594Z,94522.00
2023-05-14T04:14:09.644Z,94520.00
2023-05-14T04:15:09.698Z,94518.00
2023-05-14T04:16:09.751Z,94518.00
2023-05-14T04:17:09.740Z,94516.00
2023-05-14T04:18:09.803Z,94516.00
2023-05-14T04:19:09.878Z,94514.00
2023-05-14T04:20:09.861Z,94512.00
2023-05-14T04:21:09.913Z,94512.00
2023-05-14T04:22:09.940Z,94510.00
2023-05-14T04:23:09.978Z,94510.00
2023-05-14T04:24:10.036Z,94510.00
2023-05-14T04:25:10.078Z,94510.00
2023-05-14T04:26:10.132Z,94510.00
2023-05-14T04:27:10.163Z,94510.00
2023-05-14T04:28:10.219Z,94512.00
2023-05-14T04:29:10.239Z,94510.00
2023-05-14T04:30:10.292Z,94512.00
2023-05-14T04:31:10.402Z,94512.00
2023-05-14T04:32:10.360Z,94510.00
2023-05-14T04:33:10.512Z,94514.00
2023-05-14T04:34:10.423Z,94512.00
2023-05-14T04:35:10.479Z,94512.00
2023-05-14T04:36:10.559Z,94508.00
2023-05-14T04:37:10.568Z,94514.00
2023-05-14T04:38:10.644Z,94514.00
2023-05-14T04:39:10.655Z,94512.00
2023-05-14T04:40:10.694Z,94516.00
2023-05-14T04:41:10.743Z,94514.00
2023-05-14T04:42:10.799Z,94514.00
2023-05-14T04:43:10.854Z,94514.00
2023-05-14T04:44:10.887Z,94512.00
2023-05-14T04:45:10.941Z,94514.00
2023-05-14T04:46:11.073Z,94514.00
2023-05-14T04:47:11.036Z,94512.00
2023-05-14T04:48:11.116Z,94510.00
2023-05-14T04:49:11.122Z,94510.00
2023-05-14T04:50:11.195Z,94512.00
2023-05-14T04:51:11.247Z,94510.00
2023-05-14T04:52:11.270Z,94516.00
2023-05-14T04:53:11.341Z,94514.00
2023-05-14T04:54:11.408Z,94516.00
2023-05-14T04:55:11.413Z,94518.00
2023-05-14T04:56:11.485Z,94518.00
2023-05-14T04:57:11.512Z,94518.00
2023-05-14T04:58:11.580Z,94518.00
2023-05-14T04:59:11.612Z,94516.00
2023-05-14T05:00:11.672Z,94516.00
2023-05-14T05:01:11.744Z,94512.00
2023-05-14T05:02:11.730Z,94512.00
2023-05-14T05:03:11.883Z,94508.00
2023-05-14T05:04:11.860Z,94506.00
2023-05-14T05:05:11.866Z,94508.00
2023-05-14T05:06:11.920Z,94506.00
2023-05-14T05:07:11.943Z,94504.00
2023-05-14T05:08:11.982Z,94502.00
2023-05-14T05:09:12.015Z,94504.00
2023-05-14T05:10:12.056Z,94506.00
2023-05-14T05:11:12.086Z,94508.00
2023-05-14T05:12:12.151Z,94508.00
2023-05-14T05:13:12.172Z,94510.00
2023-05-14T05:14:12.241Z,94512.00
2023-05-14T05:15:12.261Z,94512.00
2023-05-14T05:16:12.359Z,94514.00
2023-05-14T05:17:12.359Z,94514.00
2023-05-14T05:18:12.395Z,94516.00
2023-05-14T05:19:12.602Z,94518.00
2023-05-14T05:20:12.495Z,94520.00
2023-05-14T05:21:12.538Z,94518.00
2023-05-14T05:22:12.567Z,94520.00
2023-05-14T05:23:12.603Z,94518.00
2023-05-14T05:24:12.634Z,94516.00
2023-05-14T05:25:12.703Z,94516.00
2023-05-14T05:26:12.721Z,94510.00
2023-05-14T05:27:12.753Z,94510.00
2023-05-14T05:28:12.792Z,94512.00
2023-05-14T05:29:12.829Z,94510.00
2023-05-14T05:30:12.868Z,94512.00
2023-05-14T05:31:12.962Z,94512.00
2023-05-14T05:32:12.944Z,94510.00
2023-05-14T05:33:12.991Z,94510.00
2023-05-14T05:34:13.018Z,94510.00
2023-05-14T05:35:13.042Z,94512.00
2023-05-14T05:36:13.127Z,94510.00
2023-05-14T05:37:13.119Z,94508.00
2023-05-14T05:38:13.166Z,94510.00
2023-05-14T05:39:13.205Z,94512.00
2023-05-14T05:40:13.230Z,94514.00
2023-05-14T05:41:13.267Z,94518.00
2023-05-14T05:42:13.320Z,94516.00
2023-05-14T05:43:13.361Z,94516.00
2023-05-14T05:44:13.426Z,94518.00
2023-05-14T05:45:13.472Z,94520.00
2023-05-14T05:46:13.574Z,94522.00
2023-05-14T05:47:13.514Z,94522.00
2023-05-14T05:48:13.585Z,94522.00
2023-05-14T05:49:13.611Z,94522.00
2023-05-14T05:50:13.675Z,94522.00
2023-05-14T05:51:13.686Z,94522.00
2023-05-14T05:52:13.736Z,94518.00
2023-05-14T05:53:13.752Z,94518.00
2023-05-14T05:54:13.801Z,94520.00
2023-05-14T05:55:13.856Z,94516.00
2023-05-14T05:56:13.904Z,94514.00
2023-05-14T05:57:13.949Z,94514.00
2023-05-14T05:58:13.997Z,94516.00
2023-05-14T05:59:14.023Z,94514.00
2023-05-14T06:00:14.110Z,94514.00
2023-05-14T06:01:14.112Z,94512.00
2023-05-14T06:02:14.216Z,94514.00
2023-05-14T06:03:14.203Z,94512.00
2023-05-14T06:04:14.212Z,94508.00
2023-05-14T06:05:14.353Z,94510.00
2023-05-14T06:06:14.327Z,94510.00
2023-05-14T06:07:14.364Z,94508.00
2023-05-14T06:08:14.389Z,94508.00
2023-05-14T06:09:14.428Z,94506.00
2023-05-14T06:10:14.477Z,94506.00
2023-05-14T06:11:14.503Z,94506.00
2023-05-14T06:12:14.573Z,94504.00
2023-05-14T06:13:14.590Z,94502.00
2023-05-14T06:14:14.608Z,94500.00
2023-05-14T06:15:14.692Z,94498.00
2023-05-14T06:16:14.735Z,94498.00
2023-05-14T06:17:14.716Z,94502.00
2023-05-14T06:18:14.754Z,94500.00
2023-05-14T06:19:14.859Z,94500.00
2023-05-14T06:20:14.854Z,94504.00
2023-05-14T06:21:14.865Z,94504.00
2023-05-14T06:22:14.890Z,94502.00
2023-05-14T06:23:14.918Z,94502.00
2023-05-14T06:24:14.973Z,94502.00
2023-05-14T06:25:14.994Z,94502.00
2023-05-14T06:26:15.064Z,94498.00
2023-05-14T06:27:15.077Z,94498.00
2023-05-14T06:28:15.137Z,94496.00
2023-05-14T06:29:15.188Z,94493.00
2023-05-14T06:30:15.209Z,94496.00
2023-05-14T06:31:15.249Z,94491.00
2023-05-14T06:32:15.371Z,94493.00
2023-05-14T06:33:15.309Z,94494.00
2023-05-14T06:34:15.350Z,94494.00
2023-05-14T06:35:15.388Z,94491.00
2023-05-14T06:36:15.464Z,94493.00
2023-05-14T06:37:15.491Z,94494.00
2023-05-14T06:38:15.530Z,94493.00
2023-05-14T06:39:15.560Z,94493.00
2023-05-14T06:40:15.645Z,94493.00
2023-05-14T06:41:15.644Z,94493.00
2023-05-14T06:42:15.673Z,94489.00
2023-05-14T06:43:15.689Z,94485.00
2023-05-14T06:44:15.733Z,94487.00
2023-05-14T06:45:15.772Z,94485.00
2023-05-14T06:46:15.816Z,94483.00
2023-05-14T06:47:15.875Z,94483.00
2023-05-14T06:48:15.952Z,94483.00
2023-05-14T06:49:15.967Z,94485.00
2023-05-14T06:50:16.938Z,94485.00
2023-05-14T06:51:16.029Z,94485.00
2023-05-14T06:52:16.028Z,94485.00
2023-05-14T06:53:16.140Z,94489.00
2023-05-14T06:54:16.095Z,94489.00
2023-05-14T06:55:16.130Z,94489.00
2023-05-14T06:56:16.188Z,94489.00
2023-05-14T06:57:16.189Z,94489.00
2023-05-14T06:58:16.226Z,94489.00
2023-05-14T06:59:16.250Z,94491.00
2023-05-14T07:00:16.306Z,94493.00
2023-05-14T07:01:16.422Z,94493.00
2023-05-14T07:02:16.360Z,94493.00
2023-05-14T07:03:16.409Z,94493.00
2023-05-14T07:04:16.451Z,94493.00
2023-05-14T07:05:16.465Z,94489.00
2023-05-14T07:06:16.560Z,94489.00
2023-05-14T07:07:16.527Z,94487.00
2023-05-14T07:08:16.581Z,94487.00
2023-05-14T07:09:16.664Z,94481.00
2023-05-14T07:10:16.615Z,94483.00
2023-05-14T07:11:16.638Z,94481.00
2023-05-14T07:12:16.675Z,94477.00
2023-05-14T07:13:16.702Z,94475.00
2023-05-14T07:14:16.742Z,94473.00
2023-05-14T07:15:16.751Z,94473.00
2023-05-14T07:16:16.783Z,94469.00
2023-05-14T07:17:16.905Z,94467.00
2023-05-14T07:18:16.878Z,94469.00
2023-05-14T07:19:16.969Z,94469.00
2023-05-14T07:20:16.909Z,94467.00
2023-05-14T07:21:16.923Z,94471.00
2023-05-14T07:22:16.974Z,94469.00
2023-05-14T07:23:18.536Z,94473.00
2023-05-14T07:24:16.968Z,94473.00
2023-05-14T07:25:17.003Z,94469.00
2023-05-14T07:26:16.944Z,94467.00
2023-05-14T07:27:16.980Z,94463.00
2023-05-14T07:28:16.936Z,94461.00
2023-05-14T07:29:16.930Z,94459.00
2023-05-14T07:30:16.911Z,94457.00
2023-05-14T07:31:16.959Z,94459.00
2023-05-14T07:32:16.903Z,94457.00
2023-05-14T07:33:17.077Z,94453.00
2023-05-14T07:34:16.886Z,94453.00
2023-05-14T07:35:16.910Z,94453.00
2023-05-14T07:36:16.920Z,94451.00
2023-05-14T07:37:16.879Z,94451.00
2023-05-14T07:38:16.872Z,94449.00
2023-05-14T07:39:16.847Z,94447.00
2023-05-14T07:40:16.925Z,94445.00
2023-05-14T07:41:16.860Z,94445.00
2023-05-14T07:42:27.942Z,94443.00
2023-05-14T07:43:17.819Z,94443.00
2023-05-14T07:44:16.817Z,94441.00
2023-05-14T07:45:16.806Z,94439.00
2023-05-14T07:46:16.801Z,94441.00
2023-05-14T07:47:16.802Z,94436.00
2023-05-14T07:48:16.821Z,94436.00
2023-05-14T07:49:16.773Z,94436.00
2023-05-14T07:50:16.773Z,94436.00
2023-05-14T07:51:16.772Z,94434.00
2023-05-14T07:52:16.766Z,94434.00
2023-05-14T07:53:16.762Z,94434.00
2023-05-14T07:54:16.748Z,94430.00
2023-05-14T07:55:16.772Z,94426.00
2023-05-14T07:56:16.735Z,94426.00
2023-05-14T07:57:16.739Z,94426.00
2023-05-14T07:58:16.705Z,94424.00
2023-05-14T07:59:16.736Z,94422.00
2023-05-14T08:00:16.723Z,94418.00
2023-05-14T08:01:16.690Z,94420.00
2023-05-14T08:02:16.956Z,94418.00
2023-05-14T08:03:16.877Z,94414.00
2023-05-14T08:04:16.768Z,94414.00
2023-05-14T08:05:16.719Z,94412.00
2023-05-14T08:06:16.751Z,94408.00
2023-05-14T08:07:16.764Z,94408.00
2023-05-14T08:08:16.774Z,94406.00
2023-05-14T08:09:16.771Z,94406.00
2023-05-14T08:10:16.784Z,94406.00
2023-05-14T08:11:16.870Z,94404.00
2023-05-14T08:12:16.824Z,94400.00
2023-05-14T08:13:16.819Z,94400.00
2023-05-14T08:14:16.854Z,94398.00
2023-05-14T08:15:16.838Z,94394.00
2023-05-14T08:16:16.899Z,94396.00
2023-05-14T08:17:16.910Z,94396.00
2023-05-14T08:18:16.875Z,94396.00
2023-05-14T08:19:16.988Z,94394.00
2023-05-14T08:20:16.861Z,94396.00
2023-05-14T08:21:16.953Z,94396.00
2023-05-14T08:22:16.867Z,94394.00
2023-05-14T08:23:16.873Z,94396.00
2023-05-14T08:24:16.882Z,94394.00
2023-05-14T08:25:16.860Z,94394.00
2023-05-14T08:26:16.869Z,94392.00
2023-05-14T08:27:16.880Z,94383.00
2023-05-14T08:28:16.878Z,94381.00
2023-05-14T08:29:16.974Z,94385.00
2023-05-14T08:30:16.870Z,94377.00
2023-05-14T08:31:16.928Z,94379.00
2023-05-14T08:32:23.284Z,94375.00
2023-05-14T08:33:17.891Z,94375.00
2023-05-14T08:34:16.868Z,94371.00
2023-05-14T08:35:16.844Z,94373.00
2023-05-14T08:36:16.868Z,94371.00
2023-05-14T08:37:16.933Z,94373.00
2023-05-14T08:38:16.824Z,94371.00
2023-05-14T08:39:16.821Z,94371.00
2023-05-14T08:40:16.815Z,94371.00
2023-05-14T08:41:16.813Z,94369.00
2023-05-14T08:42:16.813Z,94369.00
2023-05-14T08:43:16.782Z,94369.00
2023-05-14T08:44:16.774Z,94371.00
2023-05-14T08:45:16.774Z,94367.00
2023-05-14T08:46:16.761Z,94367.00
2023-05-14T08:47:16.748Z,94365.00
2023-05-14T08:48:16.873Z,94367.00
2023-05-14T08:49:16.766Z,94365.00
2023-05-14T08:50:16.730Z,94361.00
2023-05-14T08:51:16.725Z,94359.00
2023-05-14T08:52:16.719Z,94359.00
2023-05-14T08:53:16.705Z,94359.00
2023-05-14T08:54:16.705Z,94355.00
2023-05-14T08:55:16.713Z,94359.00
2023-05-14T08:56:16.700Z,94357.00
2023-05-14T08:57:16.692Z,94359.00
2023-05-14T08:58:16.698Z,94359.00
2023-05-14T08:59:16.662Z,94351.00
2023-05-14T09:00:16.651Z,94355.00
2023-05-14T09:01:16.720Z,94351.00
2023-05-14T09:02:16.666Z,94349.00
2023-05-14T09:03:16.680Z,94353.00
2023-05-14T09:04:16.730Z,94351.00
2023-05-14T09:05:16.618Z,94349.00
2023-05-14T09:06:16.633Z,94347.00
2023-05-14T09:07:16.621Z,94347.00
2023-05-14T09:08:16.744Z,94347.00
2023-05-14T09:09:16.686Z,94347.00
2023-05-14T09:10:16.609Z,94342.00
2023-05-14T09:11:16.584Z,94346.00
2023-05-14T09:12:16.594Z,94346.00
2023-05-14T09:13:16.579Z,94344.00
2023-05-14T09:14:16.571Z,94342.00
2023-05-14T09:15:16.576Z,94346.00
2023-05-14T09:16:16.606Z,94346.00
2023-05-14T09:17:16.588Z,94346.00
2023-05-14T09:18:16.547Z,94346.00
2023-05-14T09:19:16.623Z,94346.00
2023-05-14T09:20:16.528Z,94344.00
2023-05-14T09:21:16.536Z,94342.00
2023-05-14T09:22:16.507Z,94344.00
2023-05-14T09:23:16.494Z,94344.00
2023-05-14T09:24:16.495Z,94344.00
2023-05-14T09:25:16.483Z,94342.00
2023-05-14T09:26:16.483Z,94346.00
2023-05-14T09:27:16.482Z,94342.00
2023-05-14T09:28:16.456Z,94340.00
2023-05-14T09:29:16.459Z,94338.00
2023-05-14T09:30:16.462Z,94336.00
2023-05-14T09:31:16.496Z,94336.00
2023-05-14T09:32:16.473Z,94334.00
2023-05-14T09:33:16.455Z,94330.00
2023-05-14T09:34:16.459Z,94328.00
2023-05-14T09:35:16.461Z,94330.00
2023-05-14T09:36:16.456Z,94330.00
2023-05-14T09:37:16.481Z,94326.00
2023-05-14T09:38:16.494Z,94326.00
2023-05-14T09:39:16.462Z,94324.00
2023-05-14T09:40:16.473Z,94322.00
2023-05-14T09:41:16.637Z,94322.00
2023-05-14T09:42:16.472Z,94322.00
2023-05-14T09:43:16.500Z,94318.00
2023-05-14T09:44:16.474Z,94316.00
2023-05-14T09:45:16.473Z,94316.00
2023-05-14T09:46:16.465Z,94312.00
2023-05-14T09:47:16.521Z,94312.00
2023-05-14T09:48:16.499Z,94306.00
2023-05-14T09:49:16.445Z,94308.00
2023-05-14T09:50:16.461Z,94302.00
2023-05-14T09:51:16.432Z,94300.00
2023-05-14T09:52:16.435Z,94300.00
2023-05-14T09:53:16.449Z,94299.00
2023-05-14T09:54:16.443Z,94295.00
2023-05-14T09:55:16.427Z,94295.00
2023-05-14T09:56:16.433Z,94293.00
2023-05-14T09:57:16.432Z,94289.00
2023-05-14T09:58:16.472Z,94291.00
2023-05-14T09:59:16.487Z,94287.00
2023-05-14T10:00:16.542Z,94283.00
2023-05-14T10:01:16.540Z,94283.00
2023-05-14T10:02:16.524Z,94283.00
2023-05-14T10:03:19.578Z,94283.00
2023-05-14T10:04:16.604Z,94283.00
2023-05-14T10:05:16.536Z,94283.00
2023-05-14T10:06:16.523Z,94285.00
2023-05-14T10:07:16.535Z,94283.00
2023-05-14T10:08:16.534Z,94281.00
2023-05-14T10:09:16.518Z,94279.00
2023-05-14T10:10:16.479Z,94279.00
2023-05-14T10:11:16.476Z,94279.00
2023-05-14T10:12:16.481Z,94277.00
2023-05-14T10:13:16.470Z,94275.00
2023-05-14T10:14:16.454Z,94273.00
2023-05-14T10:15:16.442Z,94275.00
2023-05-14T10:16:16.436Z,94275.00
2023-05-14T10:17:16.453Z,94273.00
2023-05-14T10:18:16.516Z,94275.00
2023-05-14T10:19:16.615Z,94273.00
2023-05-14T10:20:16.434Z,94273.00
2023-05-14T10:21:16.404Z,94271.00
2023-05-14T10:22:16.399Z,94269.00
2023-05-14T10:23:16.385Z,94265.00
2023-05-14T10:24:16.400Z,94267.00
2023-05-14T10:25:16.409Z,94265.00
2023-05-14T10:26:16.370Z,94263.00
2023-05-14T10:27:16.408Z,94261.00
2023-05-14T10:28:16.355Z,94263.00
2023-05-14T10:29:16.333Z,94259.00
2023-05-14T10:30:16.372Z,94259.00
2023-05-14T10:31:16.418Z,94255.00
2023-05-14T10:32:16.349Z,94253.00
2023-05-14T10:33:16.412Z,94255.00
2023-05-14T10:34:16.313Z,94252.00
2023-05-14T10:35:16.300Z,94252.00
2023-05-14T10:36:16.289Z,94253.00
2023-05-14T10:37:16.282Z,94253.00
2023-05-14T10:38:16.281Z,94253.00
2023-05-14T10:39:16.289Z,94253.00
2023-05-14T10:40:16.300Z,94253.00
2023-05-14T10:41:16.252Z,94253.00
2023-05-14T10:42:16.304Z,94252.00
2023-05-14T10:43:16.257Z,94252.00
2023-05-14T10:44:16.226Z,94250.00
2023-05-14T10:45:16.229Z,94250.00
2023-05-14T10:46:16.250Z,94248.00
2023-05-14T10:47:16.288Z,94248.00
2023-05-14T10:48:16.313Z,94248.00
2023-05-14T10:49:20.682Z,94250.00
2023-05-14T10:50:17.185Z,94248.00
2023-05-14T10:51:16.198Z,94246.00
2023-05-14T10:52:16.204Z,94248.00
2023-05-14T10:53:16.193Z,94250.00
2023-05-14T10:54:16.152Z,94248.00
2023-05-14T10:55:16.176Z,94246.00
2023-05-14T10:56:16.153Z,94242.00
2023-05-14T10:57:16.135Z,94240.00
2023-05-14T10:58:16.160Z,94238.00
2023-05-14T10:59:16.196Z,94236.00
2023-05-14T11:00:16.225Z,94234.00
2023-05-14T11:01:16.291Z,94232.00
2023-05-14T11:02:16.436Z,94234.00
2023-05-14T11:03:16.415Z,94230.00
2023-05-14T11:04:16.465Z,94230.00
2023-05-14T11:05:16.477Z,94228.00
2023-05-14T11:06:16.562Z,94224.00
2023-05-14T11:07:16.601Z,94222.00
2023-05-14T11:08:16.649Z,94222.00
2023-05-14T11:09:16.692Z,94216.00
2023-05-14T11:10:16.773Z,94216.00
2023-05-14T11:11:16.784Z,94216.00
2023-05-14T11:12:16.831Z,94212.00
2023-05-14T11:13:16.868Z,94214.00
2023-05-14T11:14:16.905Z,94212.00
2023-05-14T11:15:16.993Z,94212.00
2023-05-14T11:16:23.287Z,94214.00
2023-05-14T11:17:18.036Z,94216.00
2023-05-14T11:18:17.048Z,94212.00
2023-05-14T11:19:17.022Z,94212.00
2023-05-14T11:20:16.986Z,94210.00
2023-05-14T11:21:17.015Z,94210.00
2023-05-14T11:22:16.961Z,94210.00
2023-05-14T11:23:16.994Z,94208.00
2023-05-14T11:24:17.002Z,94208.00
2023-05-14T11:25:16.953Z,94202.00
2023-05-14T11:26:17.865Z,94204.00
2023-05-14T11:27:16.931Z,94204.00
2023-05-14T11:28:16.935Z,94200.00
2023-05-14T11:29:16.909Z,94204.00
2023-05-14T11:30:16.959Z,94202.00
2023-05-14T11:31:16.945Z,94202.00
2023-05-14T11:32:16.961Z,94202.00
2023-05-14T11:33:17.149Z,94202.00
2023-05-14T11:34:17.031Z,94200.00
2023-05-14T11:35:17.047Z,94200.00
2023-05-14T11:36:17.104Z,94202.00
2023-05-14T11:37:17.116Z,94200.00
2023-05-14T11:38:17.109Z,94200.00
2023-05-14T11:39:17.114Z,94204.00
2023-05-14T11:40:17.262Z,94204.00
2023-05-14T11:41:17.169Z,94204.00
2023-05-14T11:42:17.169Z,94206.00
2023-05-14T11:43:17.181Z,94206.00
2023-05-14T11:44:17.177Z,94208.00